createdAt,value
2023-01-05T00:00:46.144Z,9.30
2023-01-05T00:05:48.822Z,9.40
2023-01-05T00:11:09.916Z,9.30
2023-01-05T00:16:34.038Z,9.10
2023-01-05T00:21:55.252Z,9.00
2023-01-05T00:26:57.941Z,9.00
2023-01-05T00:32:00.492Z,9.00
2023-01-05T00:37:03.091Z,9.00
2023-01-05T00:42:05.744Z,8.90
2023-01-05T00:47:08.288Z,8.90
2023-01-05T00:52:10.959Z,8.90
2023-01-05T00:57:14.344Z,8.90
2023-01-05T01:02:17.075Z,8.90
2023-01-05T01:07:19.727Z,8.90
2023-01-05T01:12:22.335Z,9.00
2023-01-05T01:17:25.362Z,9.00
2023-01-05T01:22:28.138Z,9.10
2023-01-05T01:27:32.370Z,9.10
2023-01-05T01:32:36.661Z,9.10
2023-01-05T01:37:39.261Z,9.00
2023-01-05T01:42:41.929Z,9.00
2023-01-05T01:47:50.430Z,9.00
2023-01-05T01:52:58.695Z,8.90
2023-01-05T01:58:05.572Z,8.90
2023-01-05T02:03:08.226Z,8.90
2023-01-05T02:08:16.234Z,8.80
2023-01-05T02:13:43.977Z,8.70
2023-01-05T02:18:57.113Z,8.60
2023-01-05T02:24:11.711Z,8.50
2023-01-05T02:29:49.405Z,8.50
2023-01-05T02:35:11.091Z,8.50
2023-01-05T02:40:29.547Z,8.50
2023-01-05T02:45:34.519Z,8.50
2023-01-05T02:50:47.277Z,8.70
2023-01-05T02:56:10.289Z,8.60
2023-01-05T03:01:23.525Z,8.50
2023-01-05T03:06:46.890Z,8.50
2023-01-05T03:12:22.072Z,8.70
2023-01-05T03:17:44.440Z,8.60
2023-01-05T03:23:08.928Z,8.60
2023-01-05T03:28:39.335Z,8.60
2023-01-05T03:34:21.600Z,8.60
2023-01-05T03:39:27.499Z,8.50
2023-01-05T03:44:36.629Z,8.50
2023-01-05T03:49:40.195Z,8.50
2023-01-05T03:54:43.546Z,8.50
2023-01-05T03:59:46.166Z,8.60
2023-01-05T04:04:49.343Z,8.50
2023-01-05T04:09:52.739Z,8.70
2023-01-05T04:14:56.737Z,8.60
2023-01-05T04:19:59.396Z,8.70
2023-01-05T04:25:03.414Z,8.70
2023-01-05T04:30:08.726Z,8.80
2023-01-05T04:35:11.844Z,8.70
2023-01-05T04:40:16.529Z,8.70
2023-01-05T04:45:27.079Z,8.70
2023-01-05T04:50:30.618Z,8.90
2023-01-05T04:55:34.561Z,8.80
2023-01-05T05:00:38.221Z,8.80
2023-01-05T05:05:45.133Z,8.80
2023-01-05T05:10:50.738Z,8.80
2023-01-05T05:15:55.082Z,8.70
2023-01-05T05:20:57.712Z,8.70
2023-01-05T05:26:05.607Z,8.60
2023-01-05T05:31:09.743Z,8.70
2023-01-05T05:36:12.291Z,8.70
2023-01-05T05:41:14.793Z,8.80
2023-01-05T05:46:17.324Z,8.60
2023-01-05T05:51:19.832Z,8.90
2023-01-05T05:56:22.460Z,8.60
2023-01-05T06:01:25.055Z,8.70
2023-01-05T06:06:27.746Z,8.50
2023-01-05T06:11:30.200Z,8.60
2023-01-05T06:16:32.895Z,8.50
2023-01-05T06:21:35.491Z,8.60
2023-01-05T06:26:38.365Z,8.40
2023-01-05T06:31:40.962Z,8.50
2023-01-05T06:36:43.614Z,8.60
2023-01-05T06:41:46.078Z,8.60
2023-01-05T06:46:48.556Z,8.70
2023-01-05T06:51:51.152Z,9.00
2023-01-05T06:56:53.658Z,8.50
2023-01-05T07:01:56.301Z,8.50
2023-01-05T07:06:58.909Z,8.50
2023-01-05T07:12:01.412Z,8.50
2023-01-05T07:17:03.979Z,8.50
2023-01-05T07:22:06.849Z,8.50
2023-01-05T07:27:10.190Z,8.60
2023-01-05T07:32:12.918Z,8.40
2023-01-05T07:37:15.557Z,8.50
2023-01-05T07:42:18.112Z,8.50
2023-01-05T07:47:23.127Z,8.40
2023-01-05T07:52:25.774Z,8.40
2023-01-05T07:57:31.124Z,8.40
2023-01-05T08:02:36.023Z,8.40
2023-01-05T08:07:38.924Z,8.60
2023-01-05T08:13:01.743Z,8.60
2023-01-05T08:18:07.475Z,8.60
2023-01-05T08:23:12.445Z,8.80
2023-01-05T08:28:35.275Z,8.60
2023-01-05T08:33:38.281Z,8.60
2023-01-05T08:38:48.769Z,8.60
2023-01-05T08:43:53.574Z,8.60
2023-01-05T08:48:58.620Z,9.00
2023-01-05T08:54:01.653Z,8.90
2023-01-05T08:59:04.183Z,8.90
2023-01-05T09:04:07.037Z,8.90
2023-01-05T09:09:10.541Z,9.00
2023-01-05T09:14:15.262Z,9.10
2023-01-05T09:19:17.865Z,9.20
2023-01-05T09:24:20.414Z,9.20
2023-01-05T09:29:26.569Z,9.40
2023-01-05T09:34:29.473Z,9.40
2023-01-05T09:39:32.037Z,9.50
2023-01-05T09:44:59.263Z,9.50
2023-01-05T09:50:04.831Z,9.40
2023-01-05T09:55:18.953Z,9.40
2023-01-05T10:00:24.151Z,9.80
2023-01-05T10:05:28.452Z,9.50
2023-01-05T10:11:10.187Z,9.40
2023-01-05T10:16:17.886Z,9.40
2023-01-05T10:21:20.435Z,9.50
2023-01-05T10:26:45.217Z,9.50
2023-01-05T10:32:47.591Z,9.30
2023-01-05T10:38:27.684Z,9.20
2023-01-05T10:44:10.840Z,9.10
2023-01-05T10:49:22.078Z,8.90
2023-01-05T10:54:35.243Z,8.80
2023-01-05T10:59:57.059Z,8.80
2023-01-05T11:05:10.070Z,8.90
2023-01-05T11:10:33.403Z,8.90
2023-01-05T11:15:42.917Z,8.90
2023-01-05T11:21:13.070Z,8.80
2023-01-05T11:26:18.537Z,8.80
2023-01-05T11:31:21.263Z,8.50
2023-01-05T11:36:24.526Z,8.40
2023-01-05T11:41:27.128Z,8.40
2023-01-05T11:46:42.757Z,8.50
2023-01-05T11:51:45.570Z,8.50
2023-01-05T11:56:48.116Z,8.60
2023-01-05T12:02:11.246Z,8.60
2023-01-05T12:07:20.700Z,8.60
2023-01-05T12:12:41.259Z,8.50
2023-01-05T12:18:11.044Z,8.50
2023-01-05T12:23:19.405Z,8.50
2023-01-05T12:30:24.656Z,8.40
2023-01-05T12:35:05.316Z,8.40
2023-01-05T12:40:50.951Z,8.30
2023-01-05T12:46:14.408Z,8.30
2023-01-05T12:51:32.696Z,8.40
2023-01-05T12:56:40.692Z,8.30
2023-01-05T13:02:07.801Z,8.30
2023-01-05T13:07:20.980Z,8.40
2023-01-05T13:12:23.869Z,8.40
2023-01-05T13:17:34.669Z,8.40
2023-01-05T13:22:40.778Z,8.30
2023-01-05T13:27:43.495Z,8.20
2023-01-05T13:33:08.571Z,8.10
2023-01-05T13:38:21.965Z,8.00
2023-01-05T13:43:27.624Z,8.00
2023-01-05T13:49:04.103Z,8.00
2023-01-05T13:54:16.443Z,8.00
2023-01-05T13:59:46.681Z,8.00
2023-01-05T14:04:55.259Z,8.00
2023-01-05T14:09:58.459Z,8.10
2023-01-05T14:15:08.590Z,8.00
2023-01-05T14:20:49.115Z,7.90
2023-01-05T14:26:06.635Z,7.80
2023-01-05T14:31:13.861Z,7.80
2023-01-05T14:36:34.298Z,7.70
2023-01-05T14:41:36.772Z,7.60
2023-01-05T14:46:53.653Z,7.50
2023-01-05T14:52:01.523Z,7.30
2023-01-05T14:57:25.830Z,7.30
2023-01-05T15:02:33.601Z,7.10
2023-01-05T15:07:53.843Z,6.90
2023-01-05T15:13:02.130Z,6.70
2023-01-05T15:24:05.812Z,6.50
2023-01-05T15:29:39.269Z,6.30
2023-01-05T15:34:50.652Z,6.30
2023-01-05T15:39:55.982Z,6.10
2023-01-05T15:44:58.758Z,6.10
2023-01-05T15:50:02.209Z,6.10
2023-01-05T15:55:16.574Z,6.00
2023-01-05T16:00:31.435Z,5.90
2023-01-05T16:05:35.782Z,5.90
2023-01-05T16:11:02.958Z,5.80
2023-01-05T16:16:49.647Z,5.80
2023-01-05T16:22:11.415Z,5.70
2023-01-05T16:27:14.260Z,5.60
2023-01-05T16:32:38.798Z,5.50
2023-01-05T16:37:41.211Z,5.40
2023-01-05T16:42:50.412Z,5.20
2023-01-05T16:47:53.376Z,5.20
2023-01-05T16:53:25.904Z,5.20
2023-01-05T16:58:31.843Z,5.80
2023-01-05T17:03:34.456Z,5.30
2023-01-05T17:08:36.931Z,5.30
2023-01-05T17:13:52.472Z,5.20
2023-01-05T17:18:54.988Z,5.40
2023-01-05T17:23:59.307Z,5.20
2023-01-05T17:34:11.152Z,5.20
2023-01-05T17:39:18.618Z,5.10
2023-01-05T17:44:20.964Z,5.10
2023-01-05T17:49:23.604Z,5.20
2023-01-05T17:54:26.356Z,5.20
2023-01-05T17:59:28.851Z,5.30
2023-01-05T18:09:35.410Z,5.30
2023-01-05T18:24:48.917Z,5.20
2023-01-05T18:29:51.929Z,5.30
2023-01-05T18:34:54.297Z,5.10
2023-01-05T18:39:56.898Z,5.10
2023-01-05T18:45:04.862Z,5.00
2023-01-05T18:50:16.555Z,5.00
2023-01-05T18:55:19.543Z,5.00
2023-01-05T19:00:22.039Z,5.00
2023-01-05T19:05:24.510Z,5.00
2023-01-05T19:10:31.085Z,5.00
2023-01-05T19:15:35.272Z,5.00
2023-01-05T19:20:37.937Z,5.00
2023-01-05T19:25:40.402Z,5.00
2023-01-05T19:30:42.839Z,5.20
2023-01-05T19:35:45.230Z,5.10
2023-01-05T19:40:47.603Z,5.10
2023-01-05T19:45:50.023Z,5.00
2023-01-05T19:51:06.610Z,5.00
2023-01-05T19:56:15.101Z,5.10
2023-01-05T20:01:17.538Z,5.00
2023-01-05T20:06:23.366Z,5.00
2023-01-05T20:11:39.615Z,5.00
2023-01-05T20:16:44.551Z,5.00
2023-01-05T20:21:50.900Z,5.00
2023-01-05T20:26:56.092Z,5.00
2023-01-05T20:32:01.714Z,5.00
2023-01-05T20:37:07.325Z,5.00
2023-01-05T20:42:11.233Z,5.00
2023-01-05T20:47:15.302Z,5.10
2023-01-05T20:52:17.876Z,4.90
2023-01-05T20:57:20.727Z,4.90
2023-01-05T21:02:24.708Z,4.90
2023-01-05T21:07:27.443Z,4.90
2023-01-05T21:12:29.859Z,4.90
2023-01-05T21:17:32.373Z,4.90
2023-01-05T21:22:35.393Z,4.80
2023-01-05T21:27:37.789Z,4.80
2023-01-05T21:32:43.235Z,4.80
2023-01-05T21:37:48.429Z,4.80
2023-01-05T21:42:50.901Z,4.70
2023-01-05T21:47:57.539Z,4.70
2023-01-05T21:53:18.811Z,4.80
2023-01-05T21:58:21.693Z,4.80
2023-01-05T22:03:24.109Z,4.70
2023-01-05T22:08:26.656Z,4.70
2023-01-05T22:13:29.519Z,4.80
2023-01-05T22:18:32.307Z,4.70
2023-01-05T22:23:35.876Z,4.70
2023-01-05T22:28:40.077Z,4.80
2023-01-05T22:33:44.987Z,4.70
2023-01-05T22:38:48.672Z,4.70
2023-01-05T22:43:51.580Z,4.70
2023-01-05T22:48:55.446Z,4.60
2023-01-05T22:53:58.736Z,4.70
2023-01-05T22:59:02.333Z,4.90
2023-01-05T23:04:06.990Z,4.70
2023-01-05T23:09:13.554Z,4.70
2023-01-05T23:14:18.545Z,4.60
2023-01-05T23:19:21.204Z,4.70
2023-01-05T23:24:23.693Z,4.60
2023-01-05T23:29:26.778Z,4.60
2023-01-05T23:34:29.854Z,5.10
2023-01-05T23:39:32.251Z,4.60
2023-01-05T23:44:34.606Z,4.60
2023-01-05T23:49:36.948Z,4.70
2023-01-05T23:54:39.326Z,4.60
2023-01-05T23:59:42.244Z,4.90
